Time;durP1;ratioP1;P1;durP2;ratioP2;P2;SDS_P1;SDS_P2;PMS_P1;PMS_P2;Temp;Humidity;BMP_temperature;BMP_pressure;BME280_temperature;BME280_humidity;BME280_pressure;Samples;Min_cycle;Max_cycle;Signal;HPM_P1;HPM_P2
2021/10/12 00:00:20;;;;;;;1.02;0.95;;;10.30;99.90;;;;;;5035875;28;20044;-79
2021/10/12 00:02:46;;;;;;;3.20;1.08;;;10.30;99.90;;;;;;5014435;28;20497;-79
2021/10/12 00:05:13;;;;;;;1.75;0.85;;;10.40;99.90;;;;;;5055723;28;20049;-79
2021/10/12 00:07:39;;;;;;;0.75;0.75;;;10.40;99.90;;;;;;5037208;28;20042;-79
2021/10/12 00:10:07;;;;;;;1.60;0.93;;;10.40;99.90;;;;;;5040364;28;20104;-80
2021/10/12 00:12:33;;;;;;;0.98;0.98;;;10.40;99.90;;;;;;5030186;28;20073;-78
2021/10/12 00:14:59;;;;;;;3.72;0.93;;;10.50;99.90;;;;;;5042565;28;20457;-78
2021/10/12 00:17:25;;;;;;;2.10;1.00;;;10.50;99.90;;;;;;5023877;28;20030;-78
2021/10/12 00:19:51;;;;;;;0.52;0.52;;;10.40;99.90;;;;;;5043578;28;20040;-80
2021/10/12 00:22:17;;;;;;;0.60;0.60;;;10.40;99.90;;;;;;5059994;28;20084;-78
2021/10/12 00:24:43;;;;;;;1.30;1.20;;;10.30;99.90;;;;;;5022220;28;20076;-78
2021/10/12 00:27:09;;;;;;;1.38;0.82;;;10.30;99.90;;;;;;5043465;28;20041;-77
2021/10/12 00:29:35;;;;;;;0.70;0.70;;;10.30;99.90;;;;;;5030473;28;20405;-78
2021/10/12 00:32:01;;;;;;;0.57;0.57;;;10.30;99.90;;;;;;5044926;28;20497;-78
2021/10/12 00:34:26;;;;;;;0.57;0.57;;;10.20;99.90;;;;;;5054681;28;20048;-78
2021/10/12 00:36:52;;;;;;;0.60;0.60;;;10.20;99.90;;;;;;5028333;28;20037;-79
2021/10/12 00:39:18;;;;;;;0.60;0.60;;;10.10;99.90;;;;;;5024847;28;20036;-79
2021/10/12 00:41:44;;;;;;;0.65;0.65;;;10.10;99.90;;;;;;5055408;28;20508;-79
2021/10/12 00:44:10;;;;;;;1.33;0.93;;;10.00;99.90;;;;;;5030509;28;20118;-79
2021/10/12 00:46:36;;;;;;;3.83;0.88;;;10.00;99.90;;;;;;5054538;28;20038;-78
2021/10/12 00:49:03;;;;;;;;;;;10.00;99.90;;;;;;5028521;28;20042;-79
2021/10/12 00:51:29;;;;;;;0.85;0.80;;;10.10;99.90;;;;;;5023919;28;19963;-79
2021/10/12 00:53:54;;;;;;;0.68;0.68;;;10.10;99.90;;;;;;5049269;28;20053;-79
2021/10/12 00:56:22;;;;;;;0.90;0.90;;;10.10;99.90;;;;;;5031510;28;20475;-79
2021/10/12 00:58:48;;;;;;;5.88;1.35;;;10.20;99.90;;;;;;5011299;28;20049;-77
2021/10/12 01:01:14;;;;;;;2.80;1.10;;;10.20;99.90;;;;;;5027284;28;20041;-79
2021/10/12 01:03:40;;;;;;;3.90;1.30;;;10.20;99.90;;;;;;5037834;28;20053;-80
2021/10/12 01:06:07;;;;;;;0.57;0.57;;;10.30;99.90;;;;;;5050593;28;20048;-80
2021/10/12 01:08:32;;;;;;;4.13;1.05;;;10.30;99.90;;;;;;5058731;28;20448;-80
2021/10/12 01:10:59;;;;;;;3.70;1.25;;;10.30;99.90;;;;;;5034499;28;20048;-78
2021/10/12 01:13:26;;;;;;;4.55;0.98;;;10.30;99.90;;;;;;5051674;28;20136;-79
2021/10/12 01:15:53;;;;;;;0.77;0.77;;;10.30;99.90;;;;;;5040692;28;20437;-78
2021/10/12 01:18:19;;;;;;;0.50;0.50;;;10.20;99.90;;;;;;5031015;28;20041;-79
2021/10/12 01:20:45;;;;;;;;;;;10.30;99.90;;;;;;5023074;28;20053;-79
2021/10/12 01:23:13;;;;;;;0.98;0.85;;;10.30;99.90;;;;;;5015883;28;19921;-78
2021/10/12 01:25:39;;;;;;;0.75;0.75;;;10.30;99.90;;;;;;5025309;28;20037;-78
2021/10/12 01:28:05;;;;;;;;;;;10.20;99.90;;;;;;5032346;28;20056;-79
2021/10/12 01:30:31;;;;;;;2.47;1.23;;;10.30;99.90;;;;;;5014341;28;20007;-78
2021/10/12 01:32:57;;;;;;;1.35;1.00;;;10.30;99.90;;;;;;5022704;28;20388;-78
2021/10/12 01:35:23;;;;;;;4.68;0.80;;;10.30;99.90;;;;;;5040638;28;20116;-78
2021/10/12 01:37:49;;;;;;;0.82;0.73;;;10.30;99.90;;;;;;5048135;28;20045;-79
2021/10/12 01:40:16;;;;;;;2.95;0.75;;;10.30;99.90;;;;;;5018654;28;20053;-79
2021/10/12 01:42:42;;;;;;;5.30;1.33;;;10.30;99.90;;;;;;5038793;28;20112;-80
2021/10/12 01:45:09;;;;;;;1.35;1.23;;;10.30;99.90;;;;;;5036660;28;20038;-79
2021/10/12 01:47:36;;;;;;;1.00;0.70;;;10.30;99.90;;;;;;5034311;28;20056;-78
2021/10/12 01:50:04;;;;;;;0.95;0.90;;;10.30;99.90;;;;;;5049718;28;20034;-78
2021/10/12 01:52:30;;;;;;;1.23;0.75;;;10.30;99.90;;;;;;5027781;28;20049;-79
2021/10/12 01:54:56;;;;;;;8.25;0.75;;;10.30;99.90;;;;;;5050876;28;20033;-80
2021/10/12 01:57:22;;;;;;;4.40;1.27;;;10.30;99.90;;;;;;5031153;28;20045;-80
2021/10/12 01:59:48;;;;;;;;;;;10.40;99.90;;;;;;5017264;28;20429;-80
2021/10/12 02:02:14;;;;;;;11.18;1.40;;;10.40;99.90;;;;;;5034637;28;19997;-80
2021/10/12 02:04:40;;;;;;;0.50;0.50;;;10.30;99.90;;;;;;5015073;28;20487;-79
2021/10/12 02:07:06;;;;;;;0.50;0.50;;;10.30;99.90;;;;;;5033953;28;20041;-79
2021/10/12 02:09:31;;;;;;;1.30;0.93;;;10.30;99.90;;;;;;5017036;28;20103;-79
2021/10/12 02:11:57;;;;;;;1.05;1.05;;;10.30;99.90;;;;;;5011483;28;20041;-79
2021/10/12 02:14:23;;;;;;;0.77;0.77;;;10.30;99.90;;;;;;5049350;28;20045;-78
2021/10/12 02:16:50;;;;;;;0.52;0.52;;;10.30;99.90;;;;;;5046361;28;20052;-79
2021/10/12 02:19:16;;;;;;;0.70;0.70;;;10.30;99.90;;;;;;5035548;28;20109;-78
2021/10/12 02:21:42;;;;;;;0.60;0.60;;;10.30;99.90;;;;;;5000170;28;20144;-81
2021/10/12 02:24:08;;;;;;;0.93;0.90;;;10.30;99.90;;;;;;5034062;28;20150;-79
2021/10/12 02:26:34;;;;;;;0.40;0.40;;;10.40;99.90;;;;;;5033211;28;20129;-81
2021/10/12 02:29:00;;;;;;;0.63;0.63;;;10.40;99.90;;;;;;5037193;28;20124;-80
2021/10/12 02:31:26;;;;;;;1.17;0.85;;;10.40;99.90;;;;;;5050204;28;20087;-80
2021/10/12 02:33:52;;;;;;;2.40;0.98;;;10.40;99.90;;;;;;5009238;28;20179;-79
2021/10/12 02:36:18;;;;;;;2.22;0.90;;;10.40;99.90;;;;;;5014284;28;20116;-80
2021/10/12 02:38:44;;;;;;;1.67;1.02;;;10.40;99.90;;;;;;5039276;28;20073;-80
2021/10/12 02:41:10;;;;;;;0.73;0.70;;;10.40;99.90;;;;;;5051726;28;20060;-79
2021/10/12 02:43:36;;;;;;;;;;;10.50;99.90;;;;;;5020047;28;20432;-80
2021/10/12 02:46:01;;;;;;;1.90;0.77;;;10.50;99.90;;;;;;5030113;28;20007;-82
2021/10/12 02:48:27;;;;;;;0.55;0.55;;;10.50;99.90;;;;;;5049547;28;20482;-81
2021/10/12 02:50:53;;;;;;;0.73;0.73;;;10.50;99.90;;;;;;5022982;28;20484;-81
2021/10/12 02:53:24;;;;;;;7.03;0.95;;;10.50;99.90;;;;;;5039578;28;20087;-80
2021/10/12 02:55:50;;;;;;;0.85;0.85;;;10.40;99.90;;;;;;5030525;28;20437;-79
2021/10/12 02:58:15;;;;;;;0.85;0.75;;;10.50;99.90;;;;;;5030942;28;20131;-79
2021/10/12 03:00:41;;;;;;;2.33;1.00;;;10.50;99.90;;;;;;5032065;28;20045;-79
2021/10/12 03:03:10;;;;;;;1.10;1.00;;;10.50;99.90;;;;;;5008783;28;20462;-79
2021/10/12 03:05:45;;;;;;;0.40;0.40;;;10.50;99.90;;;;;;5052598;28;20064;-79
2021/10/12 03:08:11;;;;;;;0.60;0.60;;;10.40;99.90;;;;;;5051230;28;20041;-79
2021/10/12 03:10:36;;;;;;;0.77;0.73;;;10.40;99.90;;;;;;5050088;28;20051;-79
2021/10/12 03:13:02;;;;;;;0.73;0.73;;;10.40;99.90;;;;;;5023512;28;20048;-78
2021/10/12 03:15:29;;;;;;;0.60;0.60;;;10.40;99.90;;;;;;5061290;28;20095;-79
2021/10/12 03:17:54;;;;;;;3.72;1.38;;;10.40;99.90;;;;;;5025228;28;20044;-78
2021/10/12 03:20:22;;;;;;;4.93;1.38;;;10.40;99.90;;;;;;5059139;28;20041;-79
2021/10/12 03:22:48;;;;;;;0.55;0.55;;;10.40;99.90;;;;;;4994661;28;20034;-79
2021/10/12 03:25:13;;;;;;;;;;;10.40;99.90;;;;;;5002505;28;20386;-77
2021/10/12 03:27:39;;;;;;;1.13;1.13;;;10.40;99.90;;;;;;5029905;28;19921;-78
2021/10/12 03:30:06;;;;;;;1.25;1.15;;;10.40;99.90;;;;;;5044024;28;20041;-77
2021/10/12 03:32:32;;;;;;;0.68;0.68;;;10.40;99.90;;;;;;5055605;28;20432;-77
2021/10/12 03:34:58;;;;;;;1.27;1.17;;;10.40;99.90;;;;;;5031420;28;20182;-76
2021/10/12 03:37:23;;;;;;;1.15;0.88;;;10.40;99.90;;;;;;5034391;28;20125;-77
2021/10/12 03:39:49;;;;;;;0.70;0.70;;;10.40;99.90;;;;;;5033075;28;20041;-79
2021/10/12 03:42:15;;;;;;;0.60;0.60;;;10.50;99.90;;;;;;5031342;28;20072;-78
2021/10/12 03:44:40;;;;;;;0.80;0.80;;;10.40;99.90;;;;;;5049435;28;20506;-78
2021/10/12 03:47:06;;;;;;;2.42;1.02;;;10.40;99.90;;;;;;5043620;28;20037;-77
2021/10/12 03:49:32;;;;;;;0.55;0.55;;;10.40;99.90;;;;;;5029786;28;20176;-77
2021/10/12 03:51:58;;;;;;;0.70;0.70;;;10.40;99.90;;;;;;5028966;28;20116;-76
2021/10/12 03:54:23;;;;;;;3.45;1.17;;;10.40;99.90;;;;;;5029805;28;20060;-77
2021/10/12 03:56:49;;;;;;;1.42;0.90;;;10.40;99.90;;;;;;5035595;28;20049;-77
2021/10/12 03:59:15;;;;;;;1.08;1.05;;;10.40;99.90;;;;;;5062683;28;20045;-81
2021/10/12 04:01:40;;;;;;;2.35;0.75;;;10.50;99.90;;;;;;5031700;28;20116;-79
2021/10/12 04:04:06;;;;;;;0.57;0.57;;;10.40;99.90;;;;;;5015449;28;20398;-80
2021/10/12 04:06:33;;;;;;;1.10;1.00;;;10.40;99.90;;;;;;5056993;28;20486;-82
2021/10/12 04:08:59;;;;;;;3.60;1.25;;;10.40;99.90;;;;;;5023294;28;20033;-81
2021/10/12 04:11:24;;;;;;;1.42;1.15;;;10.40;99.90;;;;;;5068502;28;20047;-80
2021/10/12 04:13:50;;;;;;;0.77;0.75;;;10.40;99.90;;;;;;5031806;28;20490;-81
2021/10/12 04:16:16;;;;;;;3.67;1.80;;;10.40;99.90;;;;;;5051764;28;20098;-80
2021/10/12 04:18:42;;;;;;;3.75;0.80;;;10.40;99.90;;;;;;5032971;28;20556;-79
2021/10/12 04:21:07;;;;;;;9.85;1.52;;;10.40;99.90;;;;;;5032521;28;20414;-78
2021/10/12 04:23:35;;;;;;;0.60;0.60;;;10.40;99.90;;;;;;5047940;28;20073;-79
2021/10/12 04:26:01;;;;;;;1.10;0.80;;;10.40;99.90;;;;;;5015425;28;20055;-81
2021/10/12 04:28:27;;;;;;;0.80;0.80;;;10.50;99.90;;;;;;5039797;28;20041;-78
2021/10/12 04:30:53;;;;;;;3.78;1.05;;;10.50;99.90;;;;;;5043462;28;20063;-81
2021/10/12 04:33:19;;;;;;;0.98;0.98;;;10.50;99.90;;;;;;5035358;28;20513;-80
2021/10/12 04:35:44;;;;;;;2.33;1.00;;;10.60;99.90;;;;;;5026627;28;20053;-79
2021/10/12 04:38:10;;;;;;;0.52;0.52;;;10.60;99.90;;;;;;5049249;28;20042;-79
2021/10/12 04:40:36;;;;;;;0.57;0.57;;;10.60;99.90;;;;;;5060043;28;20432;-78
2021/10/12 04:43:06;;;;;;;1.33;1.17;;;10.60;99.90;;;;;;5050125;28;20064;-79
2021/10/12 04:45:32;;;;;;;0.77;0.77;;;10.70;99.90;;;;;;5048834;28;20093;-79
2021/10/12 04:47:58;;;;;;;0.55;0.55;;;10.60;99.90;;;;;;5051529;28;20064;-78
2021/10/12 04:50:24;;;;;;;0.50;0.50;;;10.60;99.90;;;;;;5026602;28;20181;-79
2021/10/12 04:52:50;;;;;;;1.88;1.38;;;10.60;99.90;;;;;;5032308;28;20056;-78
2021/10/12 04:55:16;;;;;;;0.60;0.60;;;10.60;99.90;;;;;;5032123;28;20048;-79
2021/10/12 04:57:41;;;;;;;0.60;0.60;;;10.60;99.90;;;;;;5002618;28;20448;-79
2021/10/12 05:00:08;;;;;;;0.60;0.60;;;10.60;99.90;;;;;;5033196;28;20052;-79
2021/10/12 05:02:35;;;;;;;0.70;0.70;;;10.60;99.90;;;;;;5049389;28;20046;-79
2021/10/12 05:05:00;;;;;;;0.45;0.45;;;10.60;99.90;;;;;;5046919;28;20053;-77
2021/10/12 05:07:26;;;;;;;2.38;0.70;;;10.60;99.90;;;;;;5045566;28;20053;-78
2021/10/12 05:09:52;;;;;;;0.50;0.50;;;10.50;99.90;;;;;;5047892;28;20033;-78
2021/10/12 05:12:17;;;;;;;0.43;0.43;;;10.50;99.90;;;;;;5060999;28;20053;-78
2021/10/12 05:14:43;;;;;;;3.40;0.60;;;10.50;99.90;;;;;;5051704;28;20494;-78
2021/10/12 05:17:24;;;;;;;0.43;0.43;;;10.40;99.90;;;;;;5049138;28;20041;-78
2021/10/12 05:19:50;;;;;;;0.60;0.60;;;10.40;99.90;;;;;;5023008;28;20390;-77
2021/10/12 05:22:15;;;;;;;1.38;0.80;;;10.40;99.90;;;;;;5057707;28;20113;-77
2021/10/12 05:24:41;;;;;;;0.50;0.50;;;10.40;99.90;;;;;;5052966;28;20041;-77
2021/10/12 05:27:07;;;;;;;0.40;0.40;;;10.40;99.90;;;;;;5040327;28;20041;-79
2021/10/12 05:29:33;;;;;;;0.50;0.50;;;10.40;99.90;;;;;;5040148;28;20041;-78
2021/10/12 05:31:59;;;;;;;0.70;0.70;;;10.30;99.90;;;;;;5041584;28;20091;-77
2021/10/12 05:34:25;;;;;;;0.60;0.60;;;10.40;99.90;;;;;;5026564;28;20064;-77
2021/10/12 05:36:51;;;;;;;0.55;0.55;;;10.30;99.90;;;;;;5046744;28;20056;-78
2021/10/12 05:39:17;;;;;;;0.60;0.60;;;10.30;99.90;;;;;;5050510;28;20045;-77
2021/10/12 05:41:43;;;;;;;0.38;0.38;;;10.30;99.90;;;;;;5053801;28;20056;-78
2021/10/12 05:44:09;;;;;;;1.42;1.10;;;10.30;99.90;;;;;;5036962;28;20044;-77
2021/10/12 05:46:34;;;;;;;1.13;0.65;;;10.30;99.90;;;;;;5035820;28;20045;-77
2021/10/12 05:49:00;;;;;;;0.57;0.57;;;10.30;99.90;;;;;;5052987;28;20036;-79
2021/10/12 05:51:27;;;;;;;0.75;0.70;;;10.40;99.90;;;;;;5037051;28;20036;-77
2021/10/12 05:53:54;;;;;;;0.47;0.47;;;10.30;99.90;;;;;;5044922;28;20053;-77
2021/10/12 05:58:49;;;;;;;0.60;0.60;;;10.40;99.90;;;;;;5047153;28;20052;-77
2021/10/12 06:01:17;;;;;;;6.68;1.02;;;10.30;99.90;;;;;;5054152;28;20041;-77
2021/10/12 06:03:42;;;;;;;0.43;0.43;;;10.30;99.90;;;;;;5027537;28;20059;-78
2021/10/12 06:06:08;;;;;;;0.30;0.30;;;10.30;99.90;;;;;;5045203;28;20479;-78
2021/10/12 06:08:35;;;;;;;1.00;0.95;;;10.30;99.90;;;;;;5026449;28;20051;-78
2021/10/12 06:11:02;;;;;;;0.50;0.50;;;10.30;99.90;;;;;;5048494;28;20117;-77
2021/10/12 06:13:29;;;;;;;3.53;0.80;;;10.30;99.90;;;;;;5036334;28;20069;-78
2021/10/12 06:15:55;;;;;;;0.55;0.55;;;10.30;99.90;;;;;;5043709;28;20072;-77
2021/10/12 06:18:21;;;;;;;0.77;0.77;;;11.00;99.90;;;;;;5033121;28;20399;-78
2021/10/12 06:20:48;;;;;;;0.70;0.70;;;10.20;99.90;;;;;;5033919;28;20049;-79
2021/10/12 06:23:14;;;;;;;7.95;1.00;;;10.20;99.90;;;;;;5018514;28;20056;-79
2021/10/12 06:25:41;;;;;;;0.47;0.47;;;10.20;99.90;;;;;;5038843;28;20513;-79
2021/10/12 06:28:07;;;;;;;;;;;10.30;99.90;;;;;;5051404;28;20556;-78
2021/10/12 06:30:34;;;;;;;0.85;0.82;;;10.30;99.90;;;;;;5035100;28;19916;-78
2021/10/12 06:33:00;;;;;;;0.98;0.80;;;10.30;99.90;;;;;;5034119;28;20060;-78
2021/10/12 06:35:29;;;;;;;;;;;10.30;99.90;;;;;;5049645;28;20115;-79
2021/10/12 06:37:55;;;;;;;0.63;0.63;;;10.20;99.90;;;;;;5038560;28;19963;-78
2021/10/12 06:40:21;;;;;;;0.50;0.50;;;10.30;99.90;;;;;;5044280;28;20097;-78
2021/10/12 06:42:47;;;;;;;1.33;1.00;;;10.30;99.90;;;;;;5050745;28;20049;-78
2021/10/12 06:45:16;;;;;;;10.80;0.73;;;10.30;99.90;;;;;;5045183;28;20060;-79
2021/10/12 06:47:42;;;;;;;2.10;1.38;;;10.20;99.90;;;;;;5035234;28;20495;-79
2021/10/12 06:50:08;;;;;;;1.42;1.05;;;10.20;99.90;;;;;;5018805;28;20041;-78
2021/10/12 06:52:34;;;;;;;1.40;0.75;;;10.20;99.90;;;;;;5039205;28;20394;-78
2021/10/12 06:55:00;;;;;;;0.98;0.80;;;10.30;99.90;;;;;;5057855;28;20044;-79
2021/10/12 06:57:26;;;;;;;;;;;10.30;99.90;;;;;;5022951;28;20052;-80
2021/10/12 06:59:51;;;;;;;0.50;0.50;;;10.40;99.90;;;;;;5023105;28;19921;-80
2021/10/12 07:02:18;;;;;;;0.60;0.60;;;10.40;99.90;;;;;;5055559;28;20434;-79
2021/10/12 07:04:45;;;;;;;0.82;0.82;;;10.50;99.90;;;;;;5024778;28;20085;-79
2021/10/12 07:07:10;;;;;;;0.85;0.82;;;10.50;99.90;;;;;;5032499;28;20033;-79
2021/10/12 07:09:36;;;;;;;1.27;0.93;;;10.50;99.90;;;;;;5037960;28;20056;-79
2021/10/12 07:12:02;;;;;;;5.10;0.70;;;10.60;99.90;;;;;;5049056;28;20041;-79
2021/10/12 07:14:28;;;;;;;;;;;10.60;99.90;;;;;;5038329;28;20080;-79
2021/10/12 07:16:54;;;;;;;2.40;0.73;;;10.60;99.90;;;;;;5034946;28;19920;-79
2021/10/12 07:19:19;;;;;;;0.63;0.63;;;10.60;99.90;;;;;;5034010;28;20044;-79
2021/10/12 07:21:45;;;;;;;0.65;0.65;;;10.70;99.90;;;;;;5038160;28;20548;-78
2021/10/12 07:24:11;;;;;;;;;;;10.70;99.90;;;;;;5031342;28;20045;-79
2021/10/12 07:26:37;;;;;;;2.40;0.93;;;10.80;99.90;;;;;;5063672;28;19924;-81
2021/10/12 07:29:03;;;;;;;0.52;0.52;;;10.80;99.90;;;;;;5051789;28;20112;-80
2021/10/12 07:31:28;;;;;;;0.60;0.60;;;10.80;99.90;;;;;;5031558;28;20033;-80
2021/10/12 07:33:54;;;;;;;1.25;1.15;;;10.90;99.90;;;;;;5033146;28;20041;-80
2021/10/12 07:36:20;;;;;;;5.30;0.77;;;11.00;99.90;;;;;;5038364;28;20033;-80
2021/10/12 07:38:46;;;;;;;1.10;1.02;;;11.00;99.90;;;;;;5047658;28;20040;-81
2021/10/12 07:41:12;;;;;;;1.25;1.15;;;11.00;99.90;;;;;;5064781;28;20045;-81
2021/10/12 07:43:38;;;;;;;0.57;0.57;;;11.10;99.90;;;;;;5028175;28;20470;-80
2021/10/12 07:46:05;;;;;;;1.77;0.85;;;11.10;99.90;;;;;;5050235;28;20505;-81
2021/10/12 07:48:31;;;;;;;0.47;0.47;;;11.00;99.90;;;;;;5036238;28;20045;-81
2021/10/12 07:50:57;;;;;;;1.50;0.93;;;11.10;99.90;;;;;;5042140;28;20037;-81
2021/10/12 07:53:23;;;;;;;3.90;1.10;;;11.10;99.90;;;;;;5047704;28;20513;-81
2021/10/12 07:55:52;;;;;;;6.45;1.05;;;11.20;99.90;;;;;;5032796;28;20490;-81
2021/10/12 07:58:18;;;;;;;0.90;0.90;;;11.20;99.90;;;;;;5025847;28;20044;-80
2021/10/12 08:00:44;;;;;;;0.65;0.65;;;11.30;99.90;;;;;;5023696;28;20044;-81
2021/10/12 08:03:10;;;;;;;4.95;0.77;;;11.30;99.90;;;;;;5005470;28;20037;-81
2021/10/12 08:05:37;;;;;;;0.50;0.50;;;11.30;99.90;;;;;;5035731;28;20056;-81
2021/10/12 08:08:04;;;;;;;0.60;0.60;;;11.30;99.90;;;;;;5025178;28;20073;-81
2021/10/12 08:10:30;;;;;;;0.88;0.68;;;11.30;99.90;;;;;;5019634;28;20139;-81
2021/10/12 08:12:59;;;;;;;5.45;0.85;;;11.20;99.90;;;;;;5044146;28;20044;-81
2021/10/12 08:15:25;;;;;;;3.45;1.30;;;11.20;99.90;;;;;;5022803;28;20044;-81
2021/10/12 08:17:51;;;;;;;0.82;0.70;;;11.30;99.90;;;;;;5047369;28;20356;-81
2021/10/12 08:20:17;;;;;;;0.85;0.85;;;11.40;99.90;;;;;;5045811;28;20044;-81
2021/10/12 08:22:43;;;;;;;0.50;0.50;;;11.40;99.90;;;;;;5036285;28;20052;-80
2021/10/12 08:25:09;;;;;;;0.50;0.50;;;11.50;99.90;;;;;;5005048;28;20052;-81
2021/10/12 08:27:36;;;;;;;4.05;0.90;;;11.50;99.90;;;;;;5052465;28;20045;-81
2021/10/12 08:30:07;;;;;;;0.73;0.70;;;11.60;99.90;;;;;;5026538;28;20037;-81
2021/10/12 08:32:32;;;;;;;0.82;0.60;;;11.70;99.90;;;;;;5031666;28;20117;-81
2021/10/12 08:34:58;;;;;;;0.70;0.70;;;11.70;99.90;;;;;;5003872;28;20045;-81
2021/10/12 08:37:24;;;;;;;0.50;0.50;;;11.70;99.90;;;;;;5053038;28;20143;-81
2021/10/12 08:39:50;;;;;;;4.60;0.82;;;11.70;99.90;;;;;;5056429;28;20427;-81
2021/10/12 08:42:21;;;;;;;8.27;0.73;;;11.70;99.90;;;;;;5035191;28;20052;-80
2021/10/12 08:44:50;;;;;;;0.40;0.40;;;11.70;99.90;;;;;;5030216;28;20171;-79
2021/10/12 08:47:16;;;;;;;2.70;0.70;;;11.70;99.90;;;;;;5049160;28;20399;-79
2021/10/12 08:49:42;;;;;;;1.38;0.55;;;11.60;99.90;;;;;;5046046;28;20040;-80
2021/10/12 08:52:08;;;;;;;0.50;0.50;;;11.60;99.90;;;;;;5031685;28;20037;-80
2021/10/12 08:54:34;;;;;;;1.65;1.23;;;11.60;99.90;;;;;;5032171;28;20050;-79
2021/10/12 08:56:59;;;;;;;0.55;0.55;;;11.50;99.90;;;;;;5031632;28;20092;-79
2021/10/12 08:59:25;;;;;;;0.68;0.68;;;11.50;99.90;;;;;;5041942;28;20041;-79
2021/10/12 09:01:58;;;;;;;0.80;0.80;;;11.50;99.90;;;;;;5054487;28;20048;-80
2021/10/12 09:04:35;;;;;;;0.60;0.60;;;11.60;99.90;;;;;;5025142;28;20136;-79
2021/10/12 09:07:00;;;;;;;0.45;0.45;;;11.60;99.90;;;;;;5049828;28;20074;-80
2021/10/12 09:09:34;;;;;;;1.00;1.00;;;11.60;99.90;;;;;;5035256;28;20475;-79
2021/10/12 09:12:00;;;;;;;1.13;0.60;;;11.70;99.90;;;;;;5031843;28;20499;-79
2021/10/12 09:14:26;;;;;;;0.40;0.40;;;11.70;99.90;;;;;;5032814;28;20124;-79
2021/10/12 09:17:03;;;;;;;0.55;0.55;;;11.80;99.90;;;;;;5031921;28;20120;-80
2021/10/12 09:19:33;;;;;;;0.40;0.40;;;11.90;99.90;;;;;;5019357;28;20128;-79
2021/10/12 09:22:05;;;;;;;0.57;0.57;;;12.00;99.90;;;;;;5034314;28;20084;-80
2021/10/12 09:24:39;;;;;;;0.75;0.75;;;12.00;99.90;;;;;;5043300;28;20053;-80
2021/10/12 09:27:08;;;;;;;7.13;1.15;;;12.10;99.90;;;;;;5045007;28;20037;-80
2021/10/12 09:29:38;;;;;;;0.40;0.40;;;12.20;99.90;;;;;;5045158;28;20095;-80
2021/10/12 09:32:08;;;;;;;6.97;1.00;;;12.20;99.90;;;;;;5040987;28;20095;-79
2021/10/12 09:34:35;;;;;;;0.50;0.50;;;12.20;99.90;;;;;;5037139;28;20679;-79
2021/10/12 09:37:03;;;;;;;1.05;0.60;;;12.20;99.90;;;;;;5034130;28;20124;-79
2021/10/12 09:39:36;;;;;;;0.43;0.43;;;12.30;99.90;;;;;;5053729;28;20065;-79
2021/10/12 09:42:08;;;;;;;0.95;0.80;;;12.30;99.90;;;;;;5038768;28;20113;-78
2021/10/12 09:44:34;;;;;;;0.70;0.70;;;12.40;99.90;;;;;;5040538;28;20075;-79
2021/10/12 09:47:11;;;;;;;0.63;0.63;;;12.50;99.90;;;;;;5051193;28;20510;-79
2021/10/12 09:49:37;;;;;;;6.82;1.17;;;12.60;99.90;;;;;;5031373;28;20483;-79
2021/10/12 09:52:21;;;;;;;;;;;12.80;99.90;;;;;;5019831;28;20029;-79
2021/10/12 09:54:56;;;;;;;0.52;0.52;;;12.90;99.90;;;;;;5046316;28;20315;-79
2021/10/12 09:57:23;;;;;;;1.45;0.68;;;13.10;99.90;;;;;;5056677;28;20051;-79
2021/10/12 09:59:50;;;;;;;0.85;0.65;;;13.10;99.90;;;;;;5037920;28;20037;-79
2021/10/12 10:02:21;;;;;;;0.90;0.60;;;13.10;99.90;;;;;;5053154;28;20033;-79
2021/10/12 10:04:47;;;;;;;0.70;0.70;;;13.00;99.90;;;;;;5046868;28;20094;-80
2021/10/12 10:07:29;;;;;;;0.85;0.85;;;13.00;99.90;;;;;;5031057;28;20073;-80
2021/10/12 10:10:06;;;;;;;0.60;0.60;;;13.00;99.90;;;;;;5030413;28;20095;-80
2021/10/12 10:12:33;;;;;;;0.50;0.50;;;12.80;99.90;;;;;;5051642;28;20124;-81
2021/10/12 10:14:58;;;;;;;0.55;0.55;;;12.70;99.90;;;;;;5022687;28;20038;-81
2021/10/12 10:17:25;;;;;;;0.65;0.65;;;12.50;99.90;;;;;;5046691;28;20509;-81
2021/10/12 10:19:50;;;;;;;;;;;12.50;99.90;;;;;;5016635;28;20158;-80
2021/10/12 10:22:35;;;;;;;1.13;0.82;;;12.40;99.90;;;;;;5037046;28;19959;-81
2021/10/12 10:25:21;;;;;;;1.52;0.80;;;12.40;99.90;;;;;;5030906;28;20053;-80
2021/10/12 10:27:47;;;;;;;1.27;1.10;;;12.60;99.90;;;;;;5013666;28;20033;-80
2021/10/12 10:30:19;;;;;;;0.40;0.40;;;12.80;99.90;;;;;;5026039;28;20087;-79
2021/10/12 10:32:54;;;;;;;3.03;0.68;;;13.00;99.90;;;;;;5045910;28;20099;-80
2021/10/12 10:35:42;;;;;;;0.50;0.50;;;13.10;99.90;;;;;;5028332;28;20041;-80
2021/10/12 10:38:20;;;;;;;0.40;0.40;;;13.10;99.90;;;;;;5053832;28;20652;-81
2021/10/12 10:40:51;;;;;;;1.25;0.57;;;13.10;99.90;;;;;;5043208;28;20048;-81
2021/10/12 10:43:17;;;;;;;1.33;0.75;;;13.00;99.90;;;;;;5051795;28;20505;-80
2021/10/12 10:45:50;;;;;;;0.60;0.60;;;13.00;99.90;;;;;;5014593;28;20124;-80
2021/10/12 10:48:21;;;;;;;0.85;0.85;;;13.00;99.90;;;;;;5024058;28;20048;-79
2021/10/12 10:50:48;;;;;;;0.85;0.80;;;12.90;99.90;;;;;;5041385;28;20052;-79
2021/10/12 10:53:38;;;;;;;0.40;0.40;;;12.90;99.90;;;;;;5046606;28;20045;-81
2021/10/12 10:56:04;;;;;;;0.82;0.73;;;13.10;99.90;;;;;;5047663;28;20049;-80
2021/10/12 10:58:30;;;;;;;0.88;0.85;;;13.30;99.90;;;;;;5003705;28;20095;-80
2021/10/12 11:00:56;;;;;;;2.60;0.63;;;13.60;99.90;;;;;;5015165;28;20364;-79
2021/10/12 11:03:34;;;;;;;1.55;0.88;;;13.90;99.90;;;;;;5048908;28;20130;-78
2021/10/12 11:06:20;;;;;;;4.88;0.73;;;13.70;99.90;;;;;;5033162;28;20144;-78
2021/10/12 11:09:03;;;;;;;0.50;0.50;;;13.10;99.90;;;;;;5034655;28;20056;-79
2021/10/12 11:11:33;;;;;;;0.50;0.50;;;12.40;99.90;;;;;;5025698;28;20045;-79
2021/10/12 11:13:59;;;;;;;0.95;0.47;;;12.00;99.90;;;;;;5033498;28;20120;-79
2021/10/12 11:16:33;;;;;;;2.45;0.85;;;11.70;99.90;;;;;;5056304;28;20152;-79
2021/10/12 11:19:00;;;;;;;1.38;1.27;;;11.50;99.90;;;;;;5037627;28;20033;-79
2021/10/12 11:21:27;;;;;;;0.63;0.63;;;11.50;99.90;;;;;;5047710;28;20490;-79
2021/10/12 11:23:57;;;;;;;1.20;1.05;;;11.60;99.90;;;;;;5047136;28;20041;-80
2021/10/12 11:26:27;;;;;;;0.65;0.65;;;11.50;99.90;;;;;;5042516;28;20037;-79
2021/10/12 11:28:57;;;;;;;1.48;1.38;;;11.60;99.90;;;;;;5044057;28;20037;-79
2021/10/12 11:31:25;;;;;;;0.50;0.50;;;11.80;99.90;;;;;;5059470;28;20033;-79
2021/10/12 11:33:54;;;;;;;0.50;0.50;;;12.10;99.90;;;;;;5044658;28;20045;-80
2021/10/12 11:36:22;;;;;;;0.80;0.80;;;12.40;99.90;;;;;;5051901;28;20105;-79
2021/10/12 11:38:59;;;;;;;0.80;0.80;;;12.70;99.90;;;;;;5021828;28;20473;-79
2021/10/12 11:41:26;;;;;;;0.93;0.93;;;13.00;99.90;;;;;;5052368;28;20092;-79
2021/10/12 11:43:57;;;;;;;1.38;1.27;;;13.10;99.90;;;;;;5038554;28;20398;-79
2021/10/12 11:46:32;;;;;;;1.38;0.93;;;13.20;99.90;;;;;;5033676;28;20052;-80
2021/10/12 11:49:11;;;;;;;0.57;0.57;;;13.20;99.90;;;;;;5048518;28;20049;-79
2021/10/12 11:51:39;;;;;;;0.50;0.50;;;13.10;99.90;;;;;;5016668;28;20761;-79
2021/10/12 11:54:05;;;;;;;0.50;0.50;;;12.80;99.90;;;;;;5033341;28;20397;-79
2021/10/12 11:56:36;;;;;;;3.20;0.93;;;12.70;99.90;;;;;;5047896;28;20164;-80
2021/10/12 11:59:03;;;;;;;0.68;0.68;;;12.60;99.90;;;;;;5056082;28;20499;-79
2021/10/12 12:01:36;;;;;;;1.85;0.88;;;12.60;99.90;;;;;;5043832;28;20487;-79
2021/10/12 12:04:04;;;;;;;0.40;0.40;;;12.50;99.90;;;;;;5035691;28;20099;-79
2021/10/12 12:06:33;;;;;;;0.73;0.60;;;12.40;99.90;;;;;;5049772;28;20084;-79
2021/10/12 12:09:05;;;;;;;0.60;0.60;;;12.30;99.90;;;;;;5054872;28;20041;-78
2021/10/12 12:11:31;;;;;;;3.45;0.88;;;12.20;99.90;;;;;;5050668;28;20123;-79
2021/10/12 12:13:59;;;;;;;0.63;0.63;;;12.20;99.90;;;;;;5042354;28;20052;-79
2021/10/12 12:16:32;;;;;;;2.38;1.30;;;12.10;99.90;;;;;;5050499;28;20538;-79
2021/10/12 12:19:19;;;;;;;1.00;0.90;;;12.00;99.90;;;;;;5039105;28;20043;-79
2021/10/12 12:21:46;;;;;;;1.20;0.70;;;11.90;99.90;;;;;;5056872;28;20540;-79
2021/10/12 12:24:18;;;;;;;0.60;0.60;;;11.90;99.90;;;;;;5043540;28;20045;-79
2021/10/12 12:26:44;;;;;;;1.95;0.57;;;11.90;99.90;;;;;;5017885;28;20032;-79
2021/10/12 12:29:21;;;;;;;0.55;0.55;;;12.10;99.90;;;;;;5027438;28;20537;-79
2021/10/12 12:31:52;;;;;;;0.65;0.65;;;12.20;99.90;;;;;;5037458;28;20037;-79
2021/10/12 12:34:24;;;;;;;0.65;0.63;;;12.40;99.90;;;;;;5031575;28;20053;-79
2021/10/12 12:36:50;;;;;;;0.73;0.65;;;12.50;99.90;;;;;;5052777;28;20422;-79
2021/10/12 12:39:16;;;;;;;2.42;1.08;;;12.60;99.90;;;;;;5051262;28;20051;-80
2021/10/12 12:41:43;;;;;;;0.63;0.63;;;12.70;99.90;;;;;;5035803;28;20041;-79
2021/10/12 12:44:09;;;;;;;0.43;0.43;;;13.00;99.90;;;;;;5052170;28;20056;-79
2021/10/12 12:46:36;;;;;;;0.38;0.38;;;13.20;99.90;;;;;;5056761;28;20506;-79
2021/10/12 12:49:11;;;;;;;0.73;0.65;;;13.50;99.90;;;;;;5051155;28;20041;-79
2021/10/12 12:51:48;;;;;;;0.57;0.57;;;13.80;99.90;;;;;;5056111;28;20042;-80
2021/10/12 12:54:46;;;;;;;1.02;1.02;;;13.90;99.90;;;;;;5060026;28;20064;-79